sensor_id;sensor_type;location;lat;lon;timestamp;P1;durP1;ratioP1;P2;durP2;ratioP2
15936;SDS011;9163;48.818;8.976;2024-01-25T00:02:04;18.73;;;3.67;;
15936;SDS011;9163;48.818;8.976;2024-01-25T00:04:32;21.13;;;3.90;;
15936;SDS011;9163;48.818;8.976;2024-01-25T00:07:00;19.37;;;3.50;;
15936;SDS011;9163;48.818;8.976;2024-01-25T00:09:27;25.47;;;3.80;;
15936;SDS011;9163;48.818;8.976;2024-01-25T00:11:55;19.20;;;3.97;;
15936;SDS011;9163;48.818;8.976;2024-01-25T00:14:22;21.43;;;3.50;;
15936;SDS011;9163;48.818;8.976;2024-01-25T00:16:49;21.60;;;3.70;;
15936;SDS011;9163;48.818;8.976;2024-01-25T00:19:17;21.70;;;3.97;;
15936;SDS011;9163;48.818;8.976;2024-01-25T00:21:44;21.03;;;3.53;;
15936;SDS011;9163;48.818;8.976;2024-01-25T00:24:13;21.23;;;4.17;;
15936;SDS011;9163;48.818;8.976;2024-01-25T00:26:40;27.20;;;4.10;;
15936;SDS011;9163;48.818;8.976;2024-01-25T00:29:08;18.37;;;4.10;;
15936;SDS011;9163;48.818;8.976;2024-01-25T00:31:35;23.07;;;3.93;;
15936;SDS011;9163;48.818;8.976;2024-01-25T00:34:02;28.00;;;4.40;;
15936;SDS011;9163;48.818;8.976;2024-01-25T00:36:30;20.70;;;3.40;;
15936;SDS011;9163;48.818;8.976;2024-01-25T00:38:58;18.93;;;3.60;;
15936;SDS011;9163;48.818;8.976;2024-01-25T00:41:27;19.53;;;4.03;;
15936;SDS011;9163;48.818;8.976;2024-01-25T00:43:58;23.30;;;4.13;;
15936;SDS011;9163;48.818;8.976;2024-01-25T00:46:26;20.97;;;3.70;;
15936;SDS011;9163;48.818;8.976;2024-01-25T00:48:54;22.07;;;4.20;;
15936;SDS011;9163;48.818;8.976;2024-01-25T00:51:22;20.27;;;3.50;;
15936;SDS011;9163;48.818;8.976;2024-01-25T00:53:49;18.97;;;3.97;;
15936;SDS011;9163;48.818;8.976;2024-01-25T00:56:17;24.63;;;4.00;;
15936;SDS011;9163;48.818;8.976;2024-01-25T00:58:46;20.17;;;3.67;;
15936;SDS011;9163;48.818;8.976;2024-01-25T01:01:13;19.37;;;4.00;;
15936;SDS011;9163;48.818;8.976;2024-01-25T01:03:41;16.33;;;3.43;;
15936;SDS011;9163;48.818;8.976;2024-01-25T01:06:09;21.80;;;3.93;;
15936;SDS011;9163;48.818;8.976;2024-01-25T01:08:37;21.00;;;3.53;;
15936;SDS011;9163;48.818;8.976;2024-01-25T01:11:05;25.93;;;3.80;;
15936;SDS011;9163;48.818;8.976;2024-01-25T01:13:32;22.37;;;3.67;;
15936;SDS011;9163;48.818;8.976;2024-01-25T01:16:00;17.30;;;4.10;;
15936;SDS011;9163;48.818;8.976;2024-01-25T01:18:28;17.73;;;3.17;;
15936;SDS011;9163;48.818;8.976;2024-01-25T01:20:55;18.83;;;3.57;;
15936;SDS011;9163;48.818;8.976;2024-01-25T01:23:22;20.53;;;3.80;;
15936;SDS011;9163;48.818;8.976;2024-01-25T01:25:49;14.40;;;3.57;;
15936;SDS011;9163;48.818;8.976;2024-01-25T01:28:17;19.90;;;3.20;;
15936;SDS011;9163;48.818;8.976;2024-01-25T01:30:44;18.67;;;3.43;;
15936;SDS011;9163;48.818;8.976;2024-01-25T01:33:13;17.50;;;3.60;;
15936;SDS011;9163;48.818;8.976;2024-01-25T01:35:40;21.33;;;3.67;;
15936;SDS011;9163;48.818;8.976;2024-01-25T01:38:07;24.53;;;4.43;;
15936;SDS011;9163;48.818;8.976;2024-01-25T01:40:34;21.73;;;3.67;;
15936;SDS011;9163;48.818;8.976;2024-01-25T01:43:02;11.57;;;3.10;;
15936;SDS011;9163;48.818;8.976;2024-01-25T01:45:29;15.60;;;2.93;;
15936;SDS011;9163;48.818;8.976;2024-01-25T01:47:57;18.10;;;3.23;;
15936;SDS011;9163;48.818;8.976;2024-01-25T01:50:27;13.40;;;2.97;;
15936;SDS011;9163;48.818;8.976;2024-01-25T01:52:54;18.90;;;3.17;;
15936;SDS011;9163;48.818;8.976;2024-01-25T01:55:22;20.50;;;4.30;;
15936;SDS011;9163;48.818;8.976;2024-01-25T01:57:49;23.30;;;3.70;;
15936;SDS011;9163;48.818;8.976;2024-01-25T02:00:17;17.80;;;3.33;;
15936;SDS011;9163;48.818;8.976;2024-01-25T02:02:44;16.27;;;3.37;;
15936;SDS011;9163;48.818;8.976;2024-01-25T02:05:12;21.90;;;3.80;;
15936;SDS011;9163;48.818;8.976;2024-01-25T02:07:40;19.77;;;3.40;;
15936;SDS011;9163;48.818;8.976;2024-01-25T02:10:09;18.43;;;3.13;;
15936;SDS011;9163;48.818;8.976;2024-01-25T02:12:38;19.77;;;3.63;;
15936;SDS011;9163;48.818;8.976;2024-01-25T02:15:05;23.00;;;3.70;;
15936;SDS011;9163;48.818;8.976;2024-01-25T02:17:33;17.30;;;3.37;;
15936;SDS011;9163;48.818;8.976;2024-01-25T02:20:00;14.47;;;3.47;;
15936;SDS011;9163;48.818;8.976;2024-01-25T02:22:30;22.47;;;3.90;;
15936;SDS011;9163;48.818;8.976;2024-01-25T02:24:58;22.20;;;4.03;;
15936;SDS011;9163;48.818;8.976;2024-01-25T02:27:25;22.70;;;3.40;;
15936;SDS011;9163;48.818;8.976;2024-01-25T02:29:52;23.67;;;4.17;;
15936;SDS011;9163;48.818;8.976;2024-01-25T02:32:20;16.27;;;3.90;;
15936;SDS011;9163;48.818;8.976;2024-01-25T02:34:47;19.97;;;3.63;;
15936;SDS011;9163;48.818;8.976;2024-01-25T02:37:14;22.83;;;3.80;;
15936;SDS011;9163;48.818;8.976;2024-01-25T02:39:43;17.37;;;3.70;;
15936;SDS011;9163;48.818;8.976;2024-01-25T02:42:11;19.43;;;3.70;;
15936;SDS011;9163;48.818;8.976;2024-01-25T02:44:39;18.10;;;3.37;;
15936;SDS011;9163;48.818;8.976;2024-01-25T02:47:06;17.53;;;4.00;;
15936;SDS011;9163;48.818;8.976;2024-01-25T02:49:34;15.80;;;3.30;;
15936;SDS011;9163;48.818;8.976;2024-01-25T02:52:01;17.87;;;3.07;;
15936;SDS011;9163;48.818;8.976;2024-01-25T02:54:29;17.77;;;3.27;;
15936;SDS011;9163;48.818;8.976;2024-01-25T02:56:57;13.97;;;3.20;;
15936;SDS011;9163;48.818;8.976;2024-01-25T02:59:24;19.63;;;3.50;;
15936;SDS011;9163;48.818;8.976;2024-01-25T03:01:52;20.67;;;3.40;;
15936;SDS011;9163;48.818;8.976;2024-01-25T03:04:20;17.53;;;3.20;;
15936;SDS011;9163;48.818;8.976;2024-01-25T03:06:48;21.50;;;3.27;;
15936;SDS011;9163;48.818;8.976;2024-01-25T03:09:15;19.90;;;3.60;;
15936;SDS011;9163;48.818;8.976;2024-01-25T03:11:42;21.07;;;3.50;;
15936;SDS011;9163;48.818;8.976;2024-01-25T03:14:11;16.63;;;3.10;;
15936;SDS011;9163;48.818;8.976;2024-01-25T03:16:38;16.27;;;3.47;;
15936;SDS011;9163;48.818;8.976;2024-01-25T03:19:05;18.23;;;3.60;;
15936;SDS011;9163;48.818;8.976;2024-01-25T03:21:32;15.10;;;3.17;;
15936;SDS011;9163;48.818;8.976;2024-01-25T03:24:00;20.30;;;3.80;;
15936;SDS011;9163;48.818;8.976;2024-01-25T03:26:27;16.60;;;3.27;;
15936;SDS011;9163;48.818;8.976;2024-01-25T03:28:54;18.43;;;3.53;;
15936;SDS011;9163;48.818;8.976;2024-01-25T03:31:23;18.50;;;3.30;;
15936;SDS011;9163;48.818;8.976;2024-01-25T03:33:50;22.77;;;3.70;;
15936;SDS011;9163;48.818;8.976;2024-01-25T03:36:17;21.77;;;3.83;;
15936;SDS011;9163;48.818;8.976;2024-01-25T03:38:45;17.90;;;3.40;;
15936;SDS011;9163;48.818;8.976;2024-01-25T03:41:12;17.50;;;3.40;;
15936;SDS011;9163;48.818;8.976;2024-01-25T03:43:39;18.60;;;4.00;;
15936;SDS011;9163;48.818;8.976;2024-01-25T03:46:06;22.20;;;3.60;;
15936;SDS011;9163;48.818;8.976;2024-01-25T03:48:35;16.33;;;3.10;;
15936;SDS011;9163;48.818;8.976;2024-01-25T03:51:02;23.63;;;3.90;;
15936;SDS011;9163;48.818;8.976;2024-01-25T03:53:30;20.50;;;4.13;;
15936;SDS011;9163;48.818;8.976;2024-01-25T03:55:57;19.80;;;4.13;;
15936;SDS011;9163;48.818;8.976;2024-01-25T03:58:24;16.80;;;3.43;;
15936;SDS011;9163;48.818;8.976;2024-01-25T04:00:52;23.70;;;3.70;;
15936;SDS011;9163;48.818;8.976;2024-01-25T04:03:19;12.57;;;3.23;;
15936;SDS011;9163;48.818;8.976;2024-01-25T04:05:48;18.80;;;3.13;;
15936;SDS011;9163;48.818;8.976;2024-01-25T04:08:15;19.47;;;3.43;;
15936;SDS011;9163;48.818;8.976;2024-01-25T04:10:42;22.27;;;3.80;;
15936;SDS011;9163;48.818;8.976;2024-01-25T04:13:09;14.83;;;3.47;;
15936;SDS011;9163;48.818;8.976;2024-01-25T04:15:37;18.57;;;3.20;;
15936;SDS011;9163;48.818;8.976;2024-01-25T04:18:04;16.97;;;3.47;;
15936;SDS011;9163;48.818;8.976;2024-01-25T04:20:32;22.13;;;4.37;;
15936;SDS011;9163;48.818;8.976;2024-01-25T04:23:01;19.93;;;3.97;;
15936;SDS011;9163;48.818;8.976;2024-01-25T04:25:28;21.40;;;3.97;;
15936;SDS011;9163;48.818;8.976;2024-01-25T04:27:55;15.60;;;3.57;;
15936;SDS011;9163;48.818;8.976;2024-01-25T04:30:23;22.63;;;4.00;;
15936;SDS011;9163;48.818;8.976;2024-01-25T04:32:50;16.77;;;3.83;;
15936;SDS011;9163;48.818;8.976;2024-01-25T04:35:17;21.47;;;4.23;;
15936;SDS011;9163;48.818;8.976;2024-01-25T04:37:45;22.03;;;3.87;;
15936;SDS011;9163;48.818;8.976;2024-01-25T04:40:13;21.63;;;3.33;;
15936;SDS011;9163;48.818;8.976;2024-01-25T04:42:41;21.83;;;3.70;;
15936;SDS011;9163;48.818;8.976;2024-01-25T04:45:08;19.17;;;3.90;;
15936;SDS011;9163;48.818;8.976;2024-01-25T04:47:37;16.70;;;3.50;;
15936;SDS011;9163;48.818;8.976;2024-01-25T04:50:04;21.20;;;3.77;;
15936;SDS011;9163;48.818;8.976;2024-01-25T04:52:32;16.30;;;3.40;;
15936;SDS011;9163;48.818;8.976;2024-01-25T04:54:59;20.37;;;3.70;;
15936;SDS011;9163;48.818;8.976;2024-01-25T04:57:28;18.07;;;3.50;;
15936;SDS011;9163;48.818;8.976;2024-01-25T04:59:55;24.07;;;3.93;;
15936;SDS011;9163;48.818;8.976;2024-01-25T05:02:22;23.13;;;4.53;;
15936;SDS011;9163;48.818;8.976;2024-01-25T05:04:49;22.23;;;3.90;;
15936;SDS011;9163;48.818;8.976;2024-01-25T05:07:17;17.90;;;3.80;;
15936;SDS011;9163;48.818;8.976;2024-01-25T05:09:44;26.33;;;3.77;;
15936;SDS011;9163;48.818;8.976;2024-01-25T05:12:11;17.90;;;3.40;;
15936;SDS011;9163;48.818;8.976;2024-01-25T05:14:40;14.03;;;3.23;;
15936;SDS011;9163;48.818;8.976;2024-01-25T05:17:07;15.07;;;3.27;;
15936;SDS011;9163;48.818;8.976;2024-01-25T05:19:34;18.37;;;3.63;;
15936;SDS011;9163;48.818;8.976;2024-01-25T05:22:02;18.30;;;3.73;;
15936;SDS011;9163;48.818;8.976;2024-01-25T05:24:32;16.83;;;3.57;;
15936;SDS011;9163;48.818;8.976;2024-01-25T05:26:59;22.10;;;3.90;;
15936;SDS011;9163;48.818;8.976;2024-01-25T05:29:27;20.00;;;4.17;;
15936;SDS011;9163;48.818;8.976;2024-01-25T05:31:56;24.90;;;4.03;;
15936;SDS011;9163;48.818;8.976;2024-01-25T05:34:23;22.40;;;4.20;;
15936;SDS011;9163;48.818;8.976;2024-01-25T05:36:51;23.20;;;3.77;;
15936;SDS011;9163;48.818;8.976;2024-01-25T05:39:18;23.63;;;3.73;;
15936;SDS011;9163;48.818;8.976;2024-01-25T05:41:46;18.67;;;3.50;;
15936;SDS011;9163;48.818;8.976;2024-01-25T05:44:14;19.03;;;4.13;;
15936;SDS011;9163;48.818;8.976;2024-01-25T05:46:41;21.87;;;6.37;;
15936;SDS011;9163;48.818;8.976;2024-01-25T05:49:09;21.63;;;4.33;;
15936;SDS011;9163;48.818;8.976;2024-01-25T05:51:37;20.00;;;5.63;;
15936;SDS011;9163;48.818;8.976;2024-01-25T05:54:05;24.10;;;5.23;;
15936;SDS011;9163;48.818;8.976;2024-01-25T05:56:32;23.73;;;5.10;;
15936;SDS011;9163;48.818;8.976;2024-01-25T05:58:59;21.83;;;4.50;;
15936;SDS011;9163;48.818;8.976;2024-01-25T06:01:26;19.10;;;4.33;;
15936;SDS011;9163;48.818;8.976;2024-01-25T06:03:53;21.47;;;5.40;;
15936;SDS011;9163;48.818;8.976;2024-01-25T06:06:22;28.17;;;5.10;;
15936;SDS011;9163;48.818;8.976;2024-01-25T06:08:49;22.20;;;4.70;;
15936;SDS011;9163;48.818;8.976;2024-01-25T06:11:17;28.90;;;4.77;;
15936;SDS011;9163;48.818;8.976;2024-01-25T06:13:44;22.73;;;4.47;;
15936;SDS011;9163;48.818;8.976;2024-01-25T06:16:11;27.60;;;4.27;;
15936;SDS011;9163;48.818;8.976;2024-01-25T06:18:38;24.97;;;4.10;;
15936;SDS011;9163;48.818;8.976;2024-01-25T06:21:05;21.33;;;3.97;;
15936;SDS011;9163;48.818;8.976;2024-01-25T06:23:34;20.13;;;4.87;;
15936;SDS011;9163;48.818;8.976;2024-01-25T06:26:01;20.33;;;3.90;;
15936;SDS011;9163;48.818;8.976;2024-01-25T06:28:30;23.23;;;3.80;;
15936;SDS011;9163;48.818;8.976;2024-01-25T06:30:57;24.57;;;4.80;;
15936;SDS011;9163;48.818;8.976;2024-01-25T06:33:24;24.23;;;4.20;;
15936;SDS011;9163;48.818;8.976;2024-01-25T06:35:51;23.80;;;4.20;;
15936;SDS011;9163;48.818;8.976;2024-01-25T06:38:18;20.87;;;3.70;;
15936;SDS011;9163;48.818;8.976;2024-01-25T06:40:47;26.63;;;4.43;;
15936;SDS011;9163;48.818;8.976;2024-01-25T06:43:14;21.57;;;4.70;;
15936;SDS011;9163;48.818;8.976;2024-01-25T06:45:42;25.27;;;4.23;;
15936;SDS011;9163;48.818;8.976;2024-01-25T06:48:09;26.00;;;4.83;;
15936;SDS011;9163;48.818;8.976;2024-01-25T06:50:36;28.33;;;5.03;;
15936;SDS011;9163;48.818;8.976;2024-01-25T06:53:03;25.03;;;4.90;;
15936;SDS011;9163;48.818;8.976;2024-01-25T06:55:31;27.10;;;4.83;;
15936;SDS011;9163;48.818;8.976;2024-01-25T06:57:59;25.03;;;4.57;;
15936;SDS011;9163;48.818;8.976;2024-01-25T07:00:27;21.17;;;4.20;;
15936;SDS011;9163;48.818;8.976;2024-01-25T07:02:54;26.93;;;4.30;;
15936;SDS011;9163;48.818;8.976;2024-01-25T07:05:21;19.40;;;3.93;;
15936;SDS011;9163;48.818;8.976;2024-01-25T07:07:49;22.63;;;4.50;;
15936;SDS011;9163;48.818;8.976;2024-01-25T07:10:17;24.20;;;4.87;;
15936;SDS011;9163;48.818;8.976;2024-01-25T07:12:44;19.50;;;4.80;;
15936;SDS011;9163;48.818;8.976;2024-01-25T07:15:13;24.77;;;4.50;;
15936;SDS011;9163;48.818;8.976;2024-01-25T07:17:40;23.33;;;4.70;;
15936;SDS011;9163;48.818;8.976;2024-01-25T07:20:08;24.63;;;4.67;;
15936;SDS011;9163;48.818;8.976;2024-01-25T07:22:35;31.60;;;5.80;;
15936;SDS011;9163;48.818;8.976;2024-01-25T07:25:03;28.27;;;4.77;;
15936;SDS011;9163;48.818;8.976;2024-01-25T07:27:31;23.23;;;5.30;;
15936;SDS011;9163;48.818;8.976;2024-01-25T07:29:58;25.63;;;4.03;;
15936;SDS011;9163;48.818;8.976;2024-01-25T07:32:26;26.33;;;5.27;;
15936;SDS011;9163;48.818;8.976;2024-01-25T07:34:54;21.47;;;4.57;;
15936;SDS011;9163;48.818;8.976;2024-01-25T07:37:21;25.33;;;4.33;;
15936;SDS011;9163;48.818;8.976;2024-01-25T07:39:49;23.03;;;4.50;;
15936;SDS011;9163;48.818;8.976;2024-01-25T07:42:16;26.37;;;4.17;;
15936;SDS011;9163;48.818;8.976;2024-01-25T07:44:44;19.70;;;5.00;;
15936;SDS011;9163;48.818;8.976;2024-01-25T07:47:11;25.13;;;5.63;;
15936;SDS011;9163;48.818;8.976;2024-01-25T07:49:41;19.53;;;4.87;;
15936;SDS011;9163;48.818;8.976;2024-01-25T07:52:08;22.30;;;4.93;;
15936;SDS011;9163;48.818;8.976;2024-01-25T07:54:35;18.60;;;4.27;;
15936;SDS011;9163;48.818;8.976;2024-01-25T07:57:03;28.00;;;4.77;;
15936;SDS011;9163;48.818;8.976;2024-01-25T07:59:30;15.90;;;4.03;;
15936;SDS011;9163;48.818;8.976;2024-01-25T08:01:58;24.73;;;4.60;;
15936;SDS011;9163;48.818;8.976;2024-01-25T08:04:25;17.50;;;4.17;;
15936;SDS011;9163;48.818;8.976;2024-01-25T08:06:54;20.40;;;4.30;;
15936;SDS011;9163;48.818;8.976;2024-01-25T08:09:21;24.20;;;4.70;;
15936;SDS011;9163;48.818;8.976;2024-01-25T08:11:49;18.20;;;3.93;;
15936;SDS011;9163;48.818;8.976;2024-01-25T08:14:17;23.80;;;4.60;;
15936;SDS011;9163;48.818;8.976;2024-01-25T08:16:44;17.90;;;4.27;;
15936;SDS011;9163;48.818;8.976;2024-01-25T08:19:12;24.27;;;4.60;;
15936;SDS011;9163;48.818;8.976;2024-01-25T08:21:39;24.70;;;4.23;;
15936;SDS011;9163;48.818;8.976;2024-01-25T08:24:07;17.50;;;3.67;;
15936;SDS011;9163;48.818;8.976;2024-01-25T08:26:35;14.70;;;3.37;;
15936;SDS011;9163;48.818;8.976;2024-01-25T08:29:02;15.70;;;3.60;;
15936;SDS011;9163;48.818;8.976;2024-01-25T08:31:29;16.57;;;3.33;;
15936;SDS011;9163;48.818;8.976;2024-01-25T08:33:57;16.93;;;4.10;;
15936;SDS011;9163;48.818;8.976;2024-01-25T08:36:24;14.23;;;3.90;;
15936;SDS011;9163;48.818;8.976;2024-01-25T08:38:51;19.67;;;4.00;;
15936;SDS011;9163;48.818;8.976;2024-01-25T08:41:20;16.90;;;3.47;;
15936;SDS011;9163;48.818;8.976;2024-01-25T08:43:47;15.30;;;3.73;;
15936;SDS011;9163;48.818;8.976;2024-01-25T08:46:14;18.77;;;3.63;;
15936;SDS011;9163;48.818;8.976;2024-01-25T08:48:42;15.10;;;3.90;;
15936;SDS011;9163;48.818;8.976;2024-01-25T08:51:09;15.83;;;3.47;;
15936;SDS011;9163;48.818;8.976;2024-01-25T08:53:37;16.87;;;3.23;;
15936;SDS011;9163;48.818;8.976;2024-01-25T08:56:04;14.30;;;3.50;;
15936;SDS011;9163;48.818;8.976;2024-01-25T08:58:33;19.77;;;4.43;;
15936;SDS011;9163;48.818;8.976;2024-01-25T09:01:01;14.33;;;4.17;;
15936;SDS011;9163;48.818;8.976;2024-01-25T09:03:28;14.70;;;3.37;;
15936;SDS011;9163;48.818;8.976;2024-01-25T09:05:55;16.73;;;3.80;;
15936;SDS011;9163;48.818;8.976;2024-01-25T09:08:22;13.90;;;3.50;;
15936;SDS011;9163;48.818;8.976;2024-01-25T09:10:49;10.80;;;3.37;;
15936;SDS011;9163;48.818;8.976;2024-01-25T09:13:17;12.23;;;3.30;;
15936;SDS011;9163;48.818;8.976;2024-01-25T09:15:45;10.73;;;3.07;;
15936;SDS011;9163;48.818;8.976;2024-01-25T09:18:13;10.77;;;3.13;;
15936;SDS011;9163;48.818;8.976;2024-01-25T09:20:40;14.97;;;3.37;;
15936;SDS011;9163;48.818;8.976;2024-01-25T09:23:13;17.57;;;3.47;;
15936;SDS011;9163;48.818;8.976;2024-01-25T09:25:40;13.97;;;3.43;;
15936;SDS011;9163;48.818;8.976;2024-01-25T09:28:08;14.33;;;3.43;;
15936;SDS011;9163;48.818;8.976;2024-01-25T09:30:37;16.10;;;3.53;;
15936;SDS011;9163;48.818;8.976;2024-01-25T09:33:06;15.67;;;3.20;;
15936;SDS011;9163;48.818;8.976;2024-01-25T09:35:34;16.63;;;4.00;;
15936;SDS011;9163;48.818;8.976;2024-01-25T09:38:01;19.70;;;3.87;;
15936;SDS011;9163;48.818;8.976;2024-01-25T09:40:28;14.97;;;3.20;;
15936;SDS011;9163;48.818;8.976;2024-01-25T09:42:56;16.43;;;3.70;;
15936;SDS011;9163;48.818;8.976;2024-01-25T09:45:23;16.60;;;3.20;;
15936;SDS011;9163;48.818;8.976;2024-01-25T09:47:51;19.17;;;3.23;;
15936;SDS011;9163;48.818;8.976;2024-01-25T09:50:19;18.83;;;4.80;;
15936;SDS011;9163;48.818;8.976;2024-01-25T09:52:49;18.87;;;3.53;;
15936;SDS011;9163;48.818;8.976;2024-01-25T09:55:21;13.20;;;3.20;;
15936;SDS011;9163;48.818;8.976;2024-01-25T09:57:52;19.33;;;3.90;;
15936;SDS011;9163;48.818;8.976;2024-01-25T10:00:22;19.53;;;3.70;;
15936;SDS011;9163;48.818;8.976;2024-01-25T10:02:49;15.60;;;3.30;;
15936;SDS011;9163;48.818;8.976;2024-01-25T10:05:17;14.53;;;3.07;;
15936;SDS011;9163;48.818;8.976;2024-01-25T10:07:46;21.40;;;4.07;;
15936;SDS011;9163;48.818;8.976;2024-01-25T10:10:13;16.37;;;4.57;;
15936;SDS011;9163;48.818;8.976;2024-01-25T10:12:41;13.07;;;3.40;;
15936;SDS011;9163;48.818;8.976;2024-01-25T10:15:09;14.63;;;3.17;;
15936;SDS011;9163;48.818;8.976;2024-01-25T10:17:38;15.13;;;3.53;;
15936;SDS011;9163;48.818;8.976;2024-01-25T10:20:05;18.07;;;3.33;;
15936;SDS011;9163;48.818;8.976;2024-01-25T10:22:37;14.53;;;3.20;;
15936;SDS011;9163;48.818;8.976;2024-01-25T10:25:07;18.20;;;3.33;;
15936;SDS011;9163;48.818;8.976;2024-01-25T10:27:39;18.33;;;4.20;;
15936;SDS011;9163;48.818;8.976;2024-01-25T10:30:08;13.77;;;2.80;;
15936;SDS011;9163;48.818;8.976;2024-01-25T10:32:37;12.17;;;2.83;;
15936;SDS011;9163;48.818;8.976;2024-01-25T10:35:05;9.87;;;2.80;;
15936;SDS011;9163;48.818;8.976;2024-01-25T10:37:34;10.63;;;2.73;;
15936;SDS011;9163;48.818;8.976;2024-01-25T10:40:04;14.73;;;3.10;;
15936;SDS011;9163;48.818;8.976;2024-01-25T10:42:33;9.40;;;2.67;;
15936;SDS011;9163;48.818;8.976;2024-01-25T10:45:01;13.07;;;2.57;;
15936;SDS011;9163;48.818;8.976;2024-01-25T10:47:28;10.60;;;3.10;;
15936;SDS011;9163;48.818;8.976;2024-01-25T10:50:00;9.67;;;2.60;;
15936;SDS011;9163;48.818;8.976;2024-01-25T10:52:27;12.37;;;2.93;;
15936;SDS011;9163;48.818;8.976;2024-01-25T10:54:56;11.80;;;2.83;;
15936;SDS011;9163;48.818;8.976;2024-01-25T10:57:24;12.00;;;2.87;;
15936;SDS011;9163;48.818;8.976;2024-01-25T10:59:53;10.10;;;2.63;;
15936;SDS011;9163;48.818;8.976;2024-01-25T11:02:20;9.97;;;2.70;;
15936;SDS011;9163;48.818;8.976;2024-01-25T11:04:52;10.43;;;3.00;;
15936;SDS011;9163;48.818;8.976;2024-01-25T11:07:20;8.93;;;2.83;;
15936;SDS011;9163;48.818;8.976;2024-01-25T11:09:50;9.50;;;2.70;;
15936;SDS011;9163;48.818;8.976;2024-01-25T11:12:18;8.87;;;3.00;;
15936;SDS011;9163;48.818;8.976;2024-01-25T11:14:54;12.33;;;2.80;;
15936;SDS011;9163;48.818;8.976;2024-01-25T11:17:22;9.25;;;2.60;;
15936;SDS011;9163;48.818;8.976;2024-01-25T11:19:49;11.05;;;3.28;;
15936;SDS011;9163;48.818;8.976;2024-01-25T11:22:16;11.00;;;3.70;;
15936;SDS011;9163;48.818;8.976;2024-01-25T11:24:45;11.27;;;3.17;;
15936;SDS011;9163;48.818;8.976;2024-01-25T11:27:14;8.33;;;2.73;;
15936;SDS011;9163;48.818;8.976;2024-01-25T11:29:41;11.17;;;3.10;;
15936;SDS011;9163;48.818;8.976;2024-01-25T11:32:11;9.57;;;3.07;;
15936;SDS011;9163;48.818;8.976;2024-01-25T11:34:39;8.27;;;2.40;;
15936;SDS011;9163;48.818;8.976;2024-01-25T11:37:06;10.63;;;2.93;;
15936;SDS011;9163;48.818;8.976;2024-01-25T11:39:34;10.60;;;2.80;;
15936;SDS011;9163;48.818;8.976;2024-01-25T11:42:01;9.40;;;2.70;;
15936;SDS011;9163;48.818;8.976;2024-01-25T11:44:28;8.80;;;2.83;;
15936;SDS011;9163;48.818;8.976;2024-01-25T11:46:56;8.13;;;2.67;;
15936;SDS011;9163;48.818;8.976;2024-01-25T11:49:25;5.93;;;2.40;;
15936;SDS011;9163;48.818;8.976;2024-01-25T11:51:52;8.02;;;2.83;;
15936;SDS011;9163;48.818;8.976;2024-01-25T11:54:20;8.48;;;2.90;;
15936;SDS011;9163;48.818;8.976;2024-01-25T11:56:47;8.35;;;2.78;;
15936;SDS011;9163;48.818;8.976;2024-01-25T11:59:14;9.05;;;2.67;;
15936;SDS011;9163;48.818;8.976;2024-01-25T12:01:42;7.95;;;2.90;;
15936;SDS011;9163;48.818;8.976;2024-01-25T12:04:10;9.05;;;2.67;;
15936;SDS011;9163;48.818;8.976;2024-01-25T12:06:38;9.77;;;3.00;;
15936;SDS011;9163;48.818;8.976;2024-01-25T12:09:07;7.43;;;2.65;;
15936;SDS011;9163;48.818;8.976;2024-01-25T12:11:35;7.60;;;2.70;;
15936;SDS011;9163;48.818;8.976;2024-01-25T12:14:03;7.00;;;2.47;;
15936;SDS011;9163;48.818;8.976;2024-01-25T12:16:31;9.65;;;2.45;;
15936;SDS011;9163;48.818;8.976;2024-01-25T12:18:58;7.50;;;2.40;;
15936;SDS011;9163;48.818;8.976;2024-01-25T12:21:26;9.87;;;2.83;;
15936;SDS011;9163;48.818;8.976;2024-01-25T12:23:54;7.33;;;2.47;;
15936;SDS011;9163;48.818;8.976;2024-01-25T12:26:21;9.87;;;2.40;;
15936;SDS011;9163;48.818;8.976;2024-01-25T12:28:49;9.27;;;2.83;;
15936;SDS011;9163;48.818;8.976;2024-01-25T12:31:16;9.97;;;2.63;;
15936;SDS011;9163;48.818;8.976;2024-01-25T12:33:44;6.43;;;2.38;;
15936;SDS011;9163;48.818;8.976;2024-01-25T12:36:11;7.78;;;2.33;;
15936;SDS011;9163;48.818;8.976;2024-01-25T12:38:38;9.45;;;2.63;;
15936;SDS011;9163;48.818;8.976;2024-01-25T12:41:07;6.43;;;2.42;;
15936;SDS011;9163;48.818;8.976;2024-01-25T12:43:34;7.55;;;2.58;;
15936;SDS011;9163;48.818;8.976;2024-01-25T12:46:01;6.00;;;2.20;;
15936;SDS011;9163;48.818;8.976;2024-01-25T12:48:29;5.97;;;2.10;;
15936;SDS011;9163;48.818;8.976;2024-01-25T12:50:56;7.03;;;2.40;;
15936;SDS011;9163;48.818;8.976;2024-01-25T12:53:23;7.20;;;2.42;;
15936;SDS011;9163;48.818;8.976;2024-01-25T12:55:51;9.35;;;2.53;;
15936;SDS011;9163;48.818;8.976;2024-01-25T12:58:20;8.90;;;2.40;;
15936;SDS011;9163;48.818;8.976;2024-01-25T13:00:47;7.25;;;2.50;;
15936;SDS011;9163;48.818;8.976;2024-01-25T13:03:14;5.97;;;2.30;;
15936;SDS011;9163;48.818;8.976;2024-01-25T13:05:41;5.85;;;2.25;;
15936;SDS011;9163;48.818;8.976;2024-01-25T13:08:09;6.95;;;2.10;;
15936;SDS011;9163;48.818;8.976;2024-01-25T13:10:36;7.80;;;2.40;;
15936;SDS011;9163;48.818;8.976;2024-01-25T13:13:03;6.05;;;2.10;;
15936;SDS011;9163;48.818;8.976;2024-01-25T13:15:32;9.15;;;2.83;;
15936;SDS011;9163;48.818;8.976;2024-01-25T13:17:59;6.60;;;2.13;;
15936;SDS011;9163;48.818;8.976;2024-01-25T13:20:27;7.95;;;2.45;;
15936;SDS011;9163;48.818;8.976;2024-01-25T13:22:54;6.75;;;2.20;;
15936;SDS011;9163;48.818;8.976;2024-01-25T13:25:22;6.28;;;2.47;;
15936;SDS011;9163;48.818;8.976;2024-01-25T13:27:49;7.95;;;2.20;;
15936;SDS011;9163;48.818;8.976;2024-01-25T13:30:17;6.72;;;2.42;;
15936;SDS011;9163;48.818;8.976;2024-01-25T13:32:46;7.35;;;2.30;;
15936;SDS011;9163;48.818;8.976;2024-01-25T13:35:13;6.75;;;2.30;;
15936;SDS011;9163;48.818;8.976;2024-01-25T13:37:40;5.88;;;2.20;;
15936;SDS011;9163;48.818;8.976;2024-01-25T13:40:08;6.50;;;2.20;;
15936;SDS011;9163;48.818;8.976;2024-01-25T13:42:35;7.97;;;2.50;;
15936;SDS011;9163;48.818;8.976;2024-01-25T13:45:03;8.02;;;2.28;;
15936;SDS011;9163;48.818;8.976;2024-01-25T13:47:32;6.15;;;2.30;;
15936;SDS011;9163;48.818;8.976;2024-01-25T13:50:01;7.75;;;2.20;;
15936;SDS011;9163;48.818;8.976;2024-01-25T13:52:28;7.90;;;2.05;;
15936;SDS011;9163;48.818;8.976;2024-01-25T13:54:55;5.75;;;2.20;;
15936;SDS011;9163;48.818;8.976;2024-01-25T13:57:23;6.35;;;2.20;;
15936;SDS011;9163;48.818;8.976;2024-01-25T13:59:50;7.90;;;2.38;;
15936;SDS011;9163;48.818;8.976;2024-01-25T14:02:17;7.57;;;2.33;;
15936;SDS011;9163;48.818;8.976;2024-01-25T14:04:44;5.60;;;2.03;;
15936;SDS011;9163;48.818;8.976;2024-01-25T14:07:14;9.93;;;2.60;;
15936;SDS011;9163;48.818;8.976;2024-01-25T14:09:42;8.75;;;2.38;;
15936;SDS011;9163;48.818;8.976;2024-01-25T14:12:09;7.45;;;2.45;;
15936;SDS011;9163;48.818;8.976;2024-01-25T14:14:37;7.55;;;2.40;;
15936;SDS011;9163;48.818;8.976;2024-01-25T14:17:04;7.43;;;2.50;;
15936;SDS011;9163;48.818;8.976;2024-01-25T14:19:31;8.80;;;2.13;;
15936;SDS011;9163;48.818;8.976;2024-01-25T14:21:59;9.27;;;2.53;;
15936;SDS011;9163;48.818;8.976;2024-01-25T14:24:27;8.50;;;2.30;;
15936;SDS011;9163;48.818;8.976;2024-01-25T14:26:55;8.03;;;2.07;;
15936;SDS011;9163;48.818;8.976;2024-01-25T14:29:22;7.13;;;2.10;;
15936;SDS011;9163;48.818;8.976;2024-01-25T14:31:49;6.67;;;2.27;;
15936;SDS011;9163;48.818;8.976;2024-01-25T14:34:16;9.63;;;2.00;;
15936;SDS011;9163;48.818;8.976;2024-01-25T14:36:44;7.33;;;2.00;;
15936;SDS011;9163;48.818;8.976;2024-01-25T14:39:11;6.47;;;1.70;;
15936;SDS011;9163;48.818;8.976;2024-01-25T14:41:40;7.93;;;1.90;;
15936;SDS011;9163;48.818;8.976;2024-01-25T14:44:08;7.97;;;2.10;;
15936;SDS011;9163;48.818;8.976;2024-01-25T14:46:35;10.57;;;2.10;;
15936;SDS011;9163;48.818;8.976;2024-01-25T14:49:02;9.30;;;2.13;;
15936;SDS011;9163;48.818;8.976;2024-01-25T14:51:30;11.33;;;2.80;;
15936;SDS011;9163;48.818;8.976;2024-01-25T14:53:57;7.97;;;2.03;;